createdAt,value
2019-05-30T00:03:23.379Z,13.21
2019-05-30T00:08:28.818Z,13.11
2019-05-30T00:13:37.545Z,13.02
2019-05-30T00:18:44.187Z,12.94
2019-05-30T00:23:49.418Z,12.71
2019-05-30T00:28:56.116Z,12.63
2019-05-30T00:34:05.856Z,12.50
2019-05-30T00:39:11.288Z,12.30
2019-05-30T00:44:16.776Z,12.16
2019-05-30T00:49:22.138Z,12.03
2019-05-30T00:54:28.698Z,11.98
2019-05-30T00:59:34.824Z,11.82
2019-05-30T01:04:40.160Z,11.78
2019-05-30T01:09:45.656Z,11.60
2019-05-30T01:14:51.923Z,11.51
2019-05-30T01:22:20.873Z,11.33
2019-05-30T01:27:27.200Z,11.27
2019-05-30T01:32:32.469Z,11.27
2019-05-30T01:37:38.128Z,11.11
2019-05-30T01:42:43.365Z,10.98
2019-05-30T01:47:48.688Z,10.95
2019-05-30T01:52:54.167Z,10.82
2019-05-30T01:58:01.562Z,10.77
2019-05-30T02:03:07.078Z,10.72
2019-05-30T02:08:13.286Z,10.65
2019-05-30T02:13:18.902Z,10.71
2019-05-30T02:18:24.226Z,10.67
2019-05-30T02:23:29.798Z,10.58
2019-05-30T02:28:35.078Z,10.56
2019-05-30T02:33:40.635Z,10.49
2019-05-30T02:38:45.928Z,10.37
2019-05-30T02:43:51.151Z,10.24
2019-05-30T02:48:59.312Z,10.30
2019-05-30T02:54:04.128Z,10.20
2019-05-30T02:59:11.616Z,10.19
2019-05-30T03:04:17.755Z,10.15
2019-05-30T03:09:23.168Z,10.22
2019-05-30T03:14:28.550Z,10.12
2019-05-30T03:19:33.771Z,9.98
2019-05-30T03:24:40.219Z,10.04
2019-05-30T03:29:45.856Z,10.00
2019-05-30T03:34:51.148Z,10.05
2019-05-30T03:39:56.893Z,10.16
2019-05-30T03:45:04.322Z,10.21
2019-05-30T03:50:14.490Z,10.27
2019-05-30T03:55:21.055Z,10.35
2019-05-30T04:00:35.880Z,10.47
2019-05-30T04:05:44.880Z,10.45
2019-05-30T04:10:53.618Z,10.41
2019-05-30T04:15:58.836Z,10.50
2019-05-30T04:21:04.275Z,10.53
2019-05-30T04:26:11.429Z,10.53
2019-05-30T04:31:17.710Z,10.66
2019-05-30T04:36:23.945Z,10.77
2019-05-30T04:41:29.333Z,11.00
2019-05-30T04:46:34.723Z,11.10
2019-05-30T04:51:39.971Z,11.39
2019-05-30T04:56:45.482Z,11.53
2019-05-30T05:01:50.852Z,11.73
2019-05-30T05:06:56.072Z,11.83
2019-05-30T05:12:02.365Z,12.03
2019-05-30T05:17:07.636Z,12.22
2019-05-30T05:22:13.297Z,12.43
2019-05-30T05:27:19.630Z,12.57
2019-05-30T05:32:24.969Z,12.86
2019-05-30T05:37:30.180Z,13.05
2019-05-30T05:42:35.506Z,13.21
2019-05-30T05:47:40.755Z,13.39
2019-05-30T05:52:45.976Z,13.58
2019-05-30T05:57:51.408Z,13.87
2019-05-30T06:02:56.638Z,14.03
2019-05-30T06:08:01.946Z,14.15
2019-05-30T06:13:07.344Z,14.20
2019-05-30T06:18:12.784Z,14.39
2019-05-30T06:23:19.414Z,14.67
2019-05-30T06:28:26.198Z,14.89
2019-05-30T06:33:31.677Z,14.94
2019-05-30T06:38:36.910Z,14.93
2019-05-30T06:43:42.269Z,15.04
2019-05-30T06:48:47.773Z,15.32
2019-05-30T06:53:53.373Z,15.43
2019-05-30T06:58:58.937Z,15.44
2019-05-30T07:04:05.297Z,15.63
2019-05-30T07:09:10.808Z,15.87
2019-05-30T07:14:16.129Z,15.78
2019-05-30T07:19:21.709Z,15.86
2019-05-30T07:24:27.773Z,15.92
2019-05-30T07:29:34.271Z,15.87
2019-05-30T07:34:39.689Z,16.10
2019-05-30T07:39:44.978Z,16.22
2019-05-30T07:44:50.324Z,16.36
2019-05-30T07:49:55.654Z,16.51
2019-05-30T07:55:01.020Z,16.50
2019-05-30T08:00:07.464Z,16.80
2019-05-30T08:05:23.442Z,16.96
2019-05-30T08:10:20.984Z,16.89
2019-05-30T08:15:27.277Z,17.18
2019-05-30T08:20:33.867Z,17.52
2019-05-30T08:25:39.235Z,17.85
2019-05-30T08:30:44.648Z,17.93
2019-05-30T08:35:50.552Z,18.74
2019-05-30T08:40:55.914Z,18.99
2019-05-30T08:46:01.227Z,18.74
2019-05-30T08:51:06.991Z,18.62
2019-05-30T08:56:12.300Z,19.05
2019-05-30T09:01:18.097Z,18.99
2019-05-30T09:06:23.332Z,19.19
2019-05-30T09:11:29.532Z,19.46
2019-05-30T09:16:35.366Z,19.32
2019-05-30T09:21:41.444Z,19.72
2019-05-30T09:26:50.179Z,19.91
2019-05-30T09:31:53.802Z,19.29
2019-05-30T09:36:59.065Z,19.37
2019-05-30T09:42:04.400Z,19.15
2019-05-30T09:47:10.026Z,19.02
2019-05-30T09:52:15.465Z,19.30
2019-05-30T09:57:21.045Z,19.17
2019-05-30T10:02:26.381Z,19.29
2019-05-30T10:07:31.872Z,19.33
2019-05-30T10:12:37.170Z,19.42
2019-05-30T10:17:44.673Z,19.45
2019-05-30T10:22:51.993Z,19.50
2019-05-30T10:27:58.238Z,19.40
2019-05-30T10:33:04.006Z,19.79
2019-05-30T10:38:11.033Z,20.10
2019-05-30T10:43:16.820Z,20.13
2019-05-30T10:48:22.117Z,20.26
2019-05-30T10:53:27.409Z,20.29
2019-05-30T10:58:33.294Z,20.13
2019-05-30T11:03:38.605Z,19.76
2019-05-30T11:08:47.641Z,19.70
2019-05-30T11:13:53.374Z,19.70
2019-05-30T11:18:58.638Z,19.91
2019-05-30T11:24:03.882Z,19.82
2019-05-30T11:29:09.441Z,19.32
2019-05-30T11:34:14.767Z,19.14
2019-05-30T11:39:20.029Z,19.16
2019-05-30T11:44:25.280Z,18.80
2019-05-30T11:49:30.566Z,18.95
2019-05-30T11:54:36.294Z,19.24
2019-05-30T11:59:42.590Z,19.46
2019-05-30T12:04:48.129Z,19.19
2019-05-30T12:09:54.826Z,19.34
2019-05-30T12:15:01.782Z,19.35
2019-05-30T12:20:09.195Z,19.48
2019-05-30T12:25:15.433Z,20.17
2019-05-30T12:30:22.829Z,20.85
2019-05-30T12:35:29.433Z,21.31
2019-05-30T12:40:34.724Z,22.35
2019-05-30T12:45:40.029Z,23.79
2019-05-30T12:50:45.468Z,23.66
2019-05-30T12:55:51.623Z,22.90
2019-05-30T13:00:56.872Z,22.34
2019-05-30T13:06:03.413Z,22.59
2019-05-30T13:11:08.887Z,22.16
2019-05-30T13:16:14.188Z,23.51
2019-05-30T13:21:19.602Z,26.02
2019-05-30T13:26:25.081Z,23.73
2019-05-30T13:31:30.680Z,24.55
2019-05-30T13:36:36.110Z,26.27
2019-05-30T13:41:41.443Z,25.23
2019-05-30T13:46:47.865Z,24.54
2019-05-30T13:51:53.712Z,24.56
2019-05-30T13:57:01.572Z,23.23
2019-05-30T14:02:08.161Z,22.75
2019-05-30T14:07:13.771Z,24.36
2019-05-30T14:12:19.132Z,23.06
2019-05-30T14:17:24.362Z,22.44
2019-05-30T14:22:30.373Z,22.51
2019-05-30T14:27:35.718Z,22.46
2019-05-30T14:32:41.444Z,22.05
2019-05-30T14:37:46.802Z,22.16
2019-05-30T14:42:52.474Z,21.69
2019-05-30T14:48:00.113Z,22.19
2019-05-30T14:53:05.356Z,22.18
2019-05-30T14:58:11.163Z,22.89
2019-05-30T15:03:17.531Z,22.61
2019-05-30T15:08:22.963Z,22.23
2019-05-30T15:13:28.310Z,22.15
2019-05-30T15:18:33.681Z,21.72
2019-05-30T15:23:39.380Z,21.76
2019-05-30T15:28:46.107Z,21.52
2019-05-30T15:33:51.721Z,21.49
2019-05-30T15:38:57.909Z,26.45
2019-05-30T15:44:03.162Z,25.40
2019-05-30T15:49:08.750Z,25.16
2019-05-30T15:54:15.045Z,24.27
2019-05-30T15:59:20.733Z,23.93
2019-05-30T16:04:26.114Z,25.47
2019-05-30T16:09:46.071Z,26.10
2019-05-30T16:14:38.557Z,25.32
2019-05-30T16:19:43.993Z,24.36
2019-05-30T16:24:50.224Z,24.04
2019-05-30T16:29:55.526Z,23.57
2019-05-30T16:35:01.147Z,22.80
2019-05-30T16:40:07.862Z,22.35
2019-05-30T16:45:20.203Z,22.13
2019-05-30T16:50:24.578Z,21.82
2019-05-30T16:55:30.149Z,21.40
2019-05-30T17:00:35.768Z,21.22
2019-05-30T17:05:41.562Z,21.13
2019-05-30T17:10:46.923Z,20.89
2019-05-30T17:15:52.165Z,20.55
2019-05-30T17:20:57.753Z,20.40
2019-05-30T17:26:02.984Z,20.22
2019-05-30T17:31:08.303Z,20.08
2019-05-30T17:36:14.572Z,19.83
2019-05-30T17:41:21.185Z,19.59
2019-05-30T17:46:27.515Z,19.48
2019-05-30T17:51:32.823Z,19.38
2019-05-30T17:56:38.213Z,19.19
2019-05-30T18:01:43.512Z,19.17
2019-05-30T18:06:49.447Z,19.06
2019-05-30T18:11:54.863Z,19.05
2019-05-30T18:17:00.329Z,19.05
2019-05-30T18:22:05.937Z,18.93
2019-05-30T18:27:11.356Z,18.95
2019-05-30T18:32:18.343Z,18.90
2019-05-30T18:37:24.269Z,18.80
2019-05-30T18:42:31.172Z,18.69
2019-05-30T18:47:36.634Z,18.58
2019-05-30T18:52:41.886Z,18.58
2019-05-30T18:57:48.255Z,18.59
2019-05-30T19:02:53.945Z,18.49
2019-05-30T19:08:00.103Z,18.38
2019-05-30T19:13:07.506Z,18.29
2019-05-30T19:18:13.051Z,18.34
2019-05-30T19:23:18.460Z,18.27
2019-05-30T19:28:24.302Z,18.27
2019-05-30T19:33:30.840Z,18.18
2019-05-30T19:38:37.621Z,18.14
2019-05-30T19:43:43.218Z,18.10
2019-05-30T19:48:48.796Z,18.04
2019-05-30T19:53:55.584Z,17.97
2019-05-30T19:59:03.434Z,17.97
2019-05-30T20:04:08.629Z,17.81
2019-05-30T20:09:25.075Z,17.80
2019-05-30T20:14:33.221Z,17.81
2019-05-30T20:19:41.990Z,17.78
2019-05-30T20:24:48.822Z,17.66
2019-05-30T20:29:54.380Z,17.63
2019-05-30T20:34:59.730Z,17.64
2019-05-30T20:40:05.834Z,17.58
2019-05-30T20:45:11.788Z,17.58
2019-05-30T20:50:19.507Z,17.58
2019-05-30T20:55:24.926Z,17.49
2019-05-30T21:00:40.136Z,17.46
2019-05-30T21:05:46.616Z,17.41
2019-05-30T21:10:54.842Z,17.39
2019-05-30T21:16:02.707Z,17.27
2019-05-30T21:21:08.151Z,17.21
2019-05-30T21:26:14.561Z,17.15
2019-05-30T21:31:19.841Z,17.04
2019-05-30T21:36:26.812Z,16.90
2019-05-30T21:41:32.857Z,16.79
2019-05-30T21:46:38.658Z,16.66
2019-05-30T21:51:44.084Z,16.59
2019-05-30T21:56:50.299Z,16.49
2019-05-30T22:01:57.556Z,16.43
2019-05-30T22:07:03.052Z,16.34
2019-05-30T22:12:08.912Z,16.36
2019-05-30T22:17:15.382Z,16.33
2019-05-30T22:22:20.824Z,16.28
2019-05-30T22:27:26.147Z,16.18
2019-05-30T22:32:31.371Z,16.13
2019-05-30T22:37:36.629Z,16.09
2019-05-30T22:42:42.012Z,16.12
2019-05-30T22:47:48.445Z,16.10
2019-05-30T22:52:53.692Z,16.16
2019-05-30T22:57:58.915Z,16.12
2019-05-30T23:03:04.289Z,16.17
2019-05-30T23:08:09.644Z,16.11
2019-05-30T23:13:15.077Z,16.12
2019-05-30T23:18:20.484Z,16.06
2019-05-30T23:23:25.877Z,16.00
2019-05-30T23:28:31.138Z,15.95
2019-05-30T23:33:36.898Z,15.83
2019-05-30T23:38:42.170Z,15.77
2019-05-30T23:44:03.195Z,15.66
2019-05-30T23:48:55.837Z,15.59
2019-05-30T23:54:01.284Z,15.38
2019-05-30T23:59:06.676Z,15.33
